Time;durP1;ratioP1;P1;durP2;ratioP2;P2;SDS_P1;SDS_P2;PMS_P1;PMS_P2;Temp;Humidity;BMP_temperature;BMP_pressure;BME280_temperature;BME280_humidity;BME280_pressure;Samples;Min_cycle;Max_cycle;Signal;HPM_P1;HPM_P2
2021/10/23 10:20:53;;;;;;;64.32;6.25;;;;;;;12.05;46.51;100836.94;1732618;79;21031;-43
2021/10/23 10:23:40;;;;;;;74.45;6.28;;;;;;;12.03;46.12;100830.50;1693679;82;21019;-43
2021/10/23 10:26:25;;;;;;;103.97;26.10;;;;;;;12.05;46.54;100830.45;1678339;84;20996;-43
2021/10/23 10:29:17;;;;;;;68.57;6.87;;;;;;;12.05;46.73;100831.75;1698096;83;20956;-44
2021/10/23 10:40:31;;;;;;;72.15;19.90;;;;;;;12.21;47.61;100841.39;1700315;82;20992;-45
2021/10/23 10:43:07;;;;;;;179.57;53.55;;;;;;;12.32;47.58;100838.59;1676618;83;20952;-43
2021/10/23 10:45:51;;;;;;;57.20;10.05;;;;;;;12.49;47.15;100839.12;1709605;83;21087;-44
2021/10/23 10:48:34;;;;;;;61.70;10.80;;;;;;;12.68;47.00;100839.18;1701800;83;21156;-43
2021/10/23 10:51:08;;;;;;;238.82;137.90;;;;;;;12.82;46.20;100834.98;1718951;83;21111;-44
2021/10/23 10:53:40;;;;;;;35.30;14.87;;;;;;;12.95;46.47;100833.84;1699519;83;21526;-44
2021/10/23 10:56:14;;;;;;;36.60;15.83;;;;;;;13.08;45.77;100832.66;1711740;82;20983;-44
2021/10/23 10:58:48;;;;;;;53.58;10.35;;;;;;;13.18;45.67;100834.61;1683038;83;21521;-45
2021/10/23 11:01:34;;;;;;;132.60;55.78;;;;;;;13.30;45.35;100828.73;1709862;83;21225;-43
2021/10/23 11:04:07;;;;;;;51.40;9.80;;;;;;;13.37;45.88;100828.52;1711558;83;21042;-44
2021/10/23 11:06:42;;;;;;;72.60;23.22;;;;;;;13.50;44.96;100822.59;1714958;83;20939;-43
2021/10/23 11:09:19;;;;;;;133.40;65.22;;;;;;;13.57;45.55;100820.70;1713434;83;21071;-44
2021/10/23 11:11:52;;;;;;;26.10;7.92;;;;;;;13.68;44.79;100824.34;1709285;83;20975;-44
2021/10/23 11:14:36;;;;;;;37.13;7.78;;;;;;;13.77;44.40;100808.95;1713958;83;22182;-44
2021/10/23 11:17:15;;;;;;;53.17;14.83;;;;;;;13.84;44.31;100812.25;1716453;83;24886;-44
2021/10/23 11:19:48;;;;;;;75.62;9.65;;;;;;;13.83;44.43;100825.69;1712169;82;20948;-43
2021/10/23 11:22:27;;;;;;;45.30;8.10;;;;;;;13.90;43.60;100822.05;1703659;82;21569;-44
2021/10/23 11:25:05;;;;;;;45.25;7.65;;;;;;;13.93;44.15;100831.51;1705771;83;21023;-43
2021/10/23 11:27:43;;;;;;;47.93;6.40;;;;;;;13.97;43.54;100833.13;1700519;83;20976;-44
2021/10/23 11:30:23;;;;;;;38.92;6.58;;;;;;;14.06;43.76;100826.39;1706266;82;21586;-44
2021/10/23 11:33:02;;;;;;;9.90;3.42;;;;;;;14.16;43.50;100828.30;1703678;83;21087;-44
2021/10/23 11:35:36;;;;;;;8.00;3.65;;;;;;;14.19;44.59;100835.16;1703106;83;20996;-45
2021/10/23 11:38:10;;;;;;;18.45;4.30;;;;;;;14.27;43.67;100827.98;1704536;83;21430;-43
2021/10/23 11:40:38;;;;;;;89.42;7.70;;;;;;;14.35;43.27;100827.33;1701540;83;21805;-44
2021/10/23 11:43:05;;;;;;;87.67;7.00;;;;;;;14.48;43.90;100828.27;1707812;83;21500;-44
2021/10/23 11:45:33;;;;;;;26.55;4.53;;;;;;;14.56;44.34;100825.02;1686372;83;20928;-43
2021/10/23 11:48:07;;;;;;;22.87;4.80;;;;;;;14.40;44.31;100833.72;1711417;82;21581;-44
2021/10/23 11:50:36;;;;;;;6.10;4.08;;;;;;;14.21;45.02;100835.53;1713851;83;20971;-44
2021/10/23 11:53:30;;;;;;;19.70;5.10;;;;;;;14.04;45.18;100832.09;1710027;83;21072;-44
2021/10/23 11:56:03;;;;;;;38.78;6.92;;;;;;;13.92;46.29;100829.80;1708403;82;20972;-44
2021/10/23 11:58:34;;;;;;;45.38;7.72;;;;;;;13.86;46.14;100839.91;1710405;83;21517;-44
2021/10/23 12:01:07;;;;;;;23.07;5.35;;;;;;;13.69;47.47;100838.22;1690431;83;21070;-45
2021/10/23 12:03:47;;;;;;;15.08;4.90;;;;;;;13.60;47.76;100844.50;1711987;82;20952;-44
2021/10/23 12:06:39;;;;;;;62.70;6.37;;;;;;;13.42;47.57;100844.48;1711337;83;21165;-45
2021/10/23 12:09:19;;;;;;;38.13;6.13;;;;;;;13.22;48.81;100847.94;1712676;82;21022;-45
2021/10/23 12:12:10;;;;;;;33.00;5.20;;;;;;;13.10;49.06;100849.96;1711991;82;21531;-44
2021/10/23 12:14:38;;;;;;;10.53;4.75;;;;;;;13.01;49.40;100857.52;1699275;83;21059;-44
2021/10/23 12:17:05;;;;;;;15.15;5.37;;;;;;;12.91;49.73;100859.48;1702751;83;21097;-44
2021/10/23 12:19:39;;;;;;;22.42;7.25;;;;;;;12.84;49.93;100866.55;1715000;81;22980;-45
2021/10/23 12:22:13;;;;;;;11.18;6.95;;;;;;;12.76;50.56;100867.17;1746431;80;20915;-44
2021/10/23 12:24:45;;;;;;;16.85;8.05;;;;;;;12.65;51.55;100862.19;1736782;81;20971;-44
2021/10/23 12:27:28;;;;;;;45.67;8.08;;;;;;;12.56;51.89;100860.64;1743092;81;21511;-44
2021/10/23 12:30:04;;;;;;;16.95;7.00;;;;;;;12.51;52.14;100853.39;1734681;80;20872;-45
2021/10/23 12:32:40;;;;;;;19.73;7.47;;;;;;;12.44;52.54;100853.08;1739926;81;21177;-45
2021/10/23 12:35:19;;;;;;;17.07;7.97;;;;;;;12.42;52.94;100853.55;1726329;82;20907;-44
2021/10/23 12:38:00;;;;;;;12.07;6.70;;;;;;;12.43;52.96;100852.66;1741517;82;21475;-44
2021/10/23 12:40:32;;;;;;;18.80;7.80;;;;;;;12.41;53.13;100856.61;1740345;81;20951;-42
2021/10/23 12:43:04;;;;;;;28.30;8.55;;;;;;;12.43;52.92;100853.96;1732359;81;20899;-43
2021/10/23 12:45:43;;;;;;;18.23;8.13;;;;;;;12.45;52.74;100860.84;1729079;81;21131;-42
2021/10/23 12:48:15;;;;;;;20.05;8.30;;;;;;;12.47;52.79;100861.67;1730399;81;21510;-44
2021/10/23 12:50:44;;;;;;;20.92;8.58;;;;;;;12.50;53.27;100862.03;1738600;81;20951;-44
2021/10/23 12:53:10;;;;;;;18.92;8.63;;;;;;;12.54;52.99;100859.81;1720525;81;20901;-44
2021/10/23 12:55:38;;;;;;;25.82;8.03;;;;;;;12.55;53.08;100868.02;1721394;82;20868;-45
2021/10/23 12:58:04;;;;;;;30.92;8.58;;;;;;;12.59;52.63;100865.77;1734290;81;21445;-44
2021/10/23 13:00:33;;;;;;;21.20;7.53;;;;;;;12.62;52.57;100863.53;1749238;82;21386;-43
2021/10/23 13:03:00;;;;;;;25.45;7.80;;;;;;;12.62;52.44;100866.12;1745798;81;20911;-43
2021/10/23 13:05:28;;;;;;;20.57;6.83;;;;;;;12.67;51.70;100875.13;1730521;80;21000;-44
2021/10/23 13:07:55;;;;;;;18.90;7.92;;;;;;;12.70;51.60;100877.66;1734206;82;20967;-44
2021/10/23 13:10:21;;;;;;;16.75;9.00;;;;;;;12.74;50.98;100879.30;1719908;81;21272;-44
2021/10/23 13:12:47;;;;;;;22.50;8.98;;;;;;;12.78;50.79;100882.27;1719023;81;20875;-45
2021/10/23 13:15:16;;;;;;;17.98;9.98;;;;;;;12.79;50.75;100887.88;1747136;81;22201;-45
2021/10/23 13:17:43;;;;;;;24.80;9.70;;;;;;;12.76;50.76;100882.75;1740652;81;20891;-44
2021/10/23 13:20:12;;;;;;;23.35;9.35;;;;;;;12.75;50.58;100879.28;1741501;81;20980;-44
2021/10/23 13:22:41;;;;;;;16.80;8.33;;;;;;;12.70;50.19;100888.05;1740362;81;20965;-43
2021/10/23 13:25:11;;;;;;;21.45;9.15;;;;;;;12.60;50.40;100886.08;1710994;81;20911;-43
2021/10/23 13:27:41;;;;;;;16.45;9.40;;;;;;;12.52;50.71;100889.28;1743362;81;21377;-43
2021/10/23 13:30:10;;;;;;;15.60;8.65;;;;;;;12.45;50.48;100884.64;1737547;81;21445;-44
2021/10/23 13:32:39;;;;;;;22.55;8.53;;;;;;;12.39;50.31;100888.66;1747161;81;21006;-43
2021/10/23 13:35:07;;;;;;;18.00;8.38;;;;;;;12.33;50.92;100898.28;1733767;80;21544;-43
2021/10/23 13:37:35;;;;;;;17.87;8.78;;;;;;;12.29;50.56;100894.47;1742035;82;21153;-43
2021/10/23 13:40:03;;;;;;;18.75;8.43;;;;;;;12.25;51.23;100894.98;1727942;82;20912;-43
2021/10/23 13:42:29;;;;;;;19.57;8.45;;;;;;;12.22;51.45;100898.91;1746709;81;20876;-44
2021/10/23 13:44:55;;;;;;;18.10;7.50;;;;;;;12.20;50.87;100908.46;1703061;82;21055;-44
2021/10/23 13:47:22;;;;;;;18.12;8.10;;;;;;;12.16;49.94;100907.68;1743499;81;21107;-44
2021/10/23 13:49:50;;;;;;;17.98;7.47;;;;;;;12.10;50.78;100916.01;1728527;81;20987;-44
2021/10/23 13:52:18;;;;;;;15.13;7.72;;;;;;;12.03;50.52;100910.06;1735253;81;20980;-44
2021/10/23 13:54:44;;;;;;;16.73;7.20;;;;;;;11.92;50.70;100910.20;1736685;81;20916;-44
2021/10/23 13:57:10;;;;;;;22.02;8.63;;;;;;;11.83;50.41;100920.75;1732505;81;20956;-44
2021/10/23 13:59:38;;;;;;;18.20;6.67;;;;;;;11.74;49.58;100921.29;1746566;81;21027;-44
2021/10/23 14:02:05;;;;;;;14.10;7.05;;;;;;;11.66;50.08;100919.73;1746492;82;20972;-43
2021/10/23 14:04:32;;;;;;;15.88;6.97;;;;;;;11.57;50.29;100922.02;1736470;81;21075;-43
2021/10/23 14:06:58;;;;;;;14.43;6.92;;;;;;;11.47;49.77;100922.13;1739229;81;21496;-44
2021/10/23 14:09:27;;;;;;;16.65;7.40;;;;;;;11.41;50.43;100920.93;1741866;81;20980;-44
2021/10/23 14:11:54;;;;;;;17.95;7.42;;;;;;;11.34;50.64;100926.64;1714966;81;21148;-43
2021/10/23 14:14:22;;;;;;;13.75;7.00;;;;;;;11.28;50.58;100934.95;1734173;81;21600;-44
2021/10/23 14:16:48;;;;;;;19.80;7.20;;;;;;;11.21;50.57;100938.91;1738243;81;20919;-44
2021/10/23 14:19:16;;;;;;;19.32;7.62;;;;;;;11.16;50.60;100941.16;1728268;81;20979;-44
2021/10/23 14:21:42;;;;;;;17.48;7.10;;;;;;;11.12;51.21;100950.70;1731067;81;21072;-43
2021/10/23 14:24:09;;;;;;;19.35;6.85;;;;;;;11.00;51.45;100943.09;1736845;81;21805;-44
2021/10/23 14:26:38;;;;;;;15.50;6.85;;;;;;;10.91;52.08;100952.67;1722951;81;21044;-44
2021/10/23 14:29:05;;;;;;;15.00;6.40;;;;;;;10.81;51.91;100956.25;1699523;82;20925;-44
2021/10/23 14:31:33;;;;;;;18.05;7.17;;;;;;;10.75;52.59;100958.92;1704232;81;20987;-44
2021/10/23 14:33:59;;;;;;;17.95;7.70;;;;;;;10.68;52.73;100963.73;1701209;82;21013;-43
2021/10/23 14:36:26;;;;;;;21.17;7.67;;;;;;;10.60;53.09;100962.50;1731329;82;21687;-44
2021/10/23 14:38:56;;;;;;;20.25;7.10;;;;;;;10.51;53.23;100968.66;1693168;82;20944;-43
2021/10/23 14:41:23;;;;;;;17.40;7.87;;;;;;;10.41;53.62;100960.55;1714560;83;20985;-44
2021/10/23 14:43:51;;;;;;;15.18;7.55;;;;;;;10.30;54.09;100965.37;1717152;83;21493;-44
2021/10/23 14:46:18;;;;;;;19.15;7.62;;;;;;;10.20;54.70;100977.52;1709655;83;21063;-44
2021/10/23 14:48:44;;;;;;;16.57;8.18;;;;;;;10.07;55.71;100981.06;1708413;83;21108;-44
2021/10/23 14:51:11;;;;;;;16.32;7.92;;;;;;;9.96;55.57;100973.39;1708367;83;20972;-43
2021/10/23 14:53:38;;;;;;;18.25;8.43;;;;;;;9.87;55.87;100978.22;1674204;85;20936;-43
2021/10/23 14:56:07;;;;;;;18.45;9.50;;;;;;;9.78;56.36;100981.72;1664535;85;21012;-43
2021/10/23 14:58:35;;;;;;;19.48;8.78;;;;;;;9.69;56.57;100980.47;1639682;86;21016;-44
2021/10/23 15:01:02;;;;;;;28.62;9.45;;;;;;;9.59;56.87;100979.67;1664169;85;21847;-44
2021/10/23 15:03:28;;;;;;;17.57;9.18;;;;;;;9.49;57.25;100985.35;1663632;85;21001;-43
2021/10/23 15:05:54;;;;;;;20.62;10.00;;;;;;;9.42;57.50;100984.09;1663111;85;21008;-44
2021/10/23 15:08:21;;;;;;;26.82;12.68;;;;;;;9.31;57.81;100986.73;1662488;85;20981;-43
2021/10/23 15:10:47;;;;;;;27.98;10.28;;;;;;;9.18;58.21;100991.09;1663621;85;20977;-44
2021/10/23 15:13:15;;;;;;;24.05;9.33;;;;;;;9.01;58.55;100998.45;1661516;86;21008;-43
2021/10/23 15:15:44;;;;;;;20.65;10.00;;;;;;;8.82;59.09;101002.82;1667034;85;21566;-43
2021/10/23 15:18:13;;;;;;;22.05;10.32;;;;;;;8.63;59.48;101007.17;1659607;86;20988;-45
2021/10/23 15:20:39;;;;;;;33.35;15.28;;;;;;;8.46;60.01;101004.13;1663407;85;21035;-43
2021/10/23 15:23:07;;;;;;;24.60;11.40;;;;;;;8.31;60.68;101019.61;1668329;84;20998;-43
2021/10/23 15:25:35;;;;;;;32.67;11.83;;;;;;;8.12;61.27;101019.63;1666865;85;21110;-44
2021/10/23 15:28:02;;;;;;;32.50;11.68;;;;;;;7.94;62.01;101013.99;1644894;85;21547;-44
2021/10/23 15:30:30;;;;;;;58.80;23.32;;;;;;;7.74;63.04;101019.13;1675001;84;21007;-43
2021/10/23 15:32:57;;;;;;;221.13;79.20;;;;;;;7.55;64.32;101020.34;1678804;84;21049;-43
2021/10/23 15:35:32;;;;;;;95.17;34.43;;;;;;;7.37;65.54;101025.02;1695290;83;20991;-43
2021/10/23 15:38:01;;;;;;;100.90;34.05;;;;;;;7.19;66.33;101030.95;1701455;83;20954;-43
2021/10/23 15:40:45;;;;;;;74.27;26.25;;;;;;;7.02;67.14;101039.88;1685571;83;21009;-43
2021/10/23 15:43:06;;;;;;;56.85;23.65;;;;;;;6.87;68.36;101044.07;1725892;82;21094;-43
2021/10/23 15:45:34;;;;;;;142.62;59.63;;;;;;;6.72;69.28;101048.70;1737670;81;21485;-44
2021/10/23 15:48:01;;;;;;;130.70;55.08;;;;;;;6.60;69.68;101057.19;1707417;81;21566;-44
2021/10/23 15:50:27;;;;;;;129.42;49.75;;;;;;;6.52;69.97;101063.11;1703722;81;21094;-44
2021/10/23 15:52:55;;;;;;;120.75;44.23;;;;;;;6.41;70.24;101063.90;1723631;81;20940;-43
2021/10/23 15:55:22;;;;;;;72.53;26.17;;;;;;;6.30;70.79;101067.66;1703217;81;21000;-43
2021/10/23 15:57:50;;;;;;;166.00;65.70;;;;;;;6.19;71.13;101066.71;1729833;81;21003;-42
2021/10/23 16:00:17;;;;;;;138.15;53.95;;;;;;;6.05;71.52;101075.55;1735815;81;21000;-43
2021/10/23 16:02:43;;;;;;;130.12;51.80;;;;;;;5.90;72.19;101073.23;1730634;81;21122;-42
2021/10/23 16:05:09;;;;;;;84.72;35.65;;;;;;;5.78;73.10;101082.52;1743616;81;20869;-42
2021/10/23 16:07:38;;;;;;;56.35;22.22;;;;;;;5.69;73.92;101090.56;1738155;82;21019;-42
2021/10/23 16:10:08;;;;;;;79.30;28.57;;;;;;;5.62;74.47;101087.46;1735749;81;21097;-43
2021/10/23 16:12:37;;;;;;;66.50;20.95;;;;;;;5.56;75.20;101101.52;1728348;81;20972;-43
2021/10/23 16:15:06;;;;;;;43.25;15.85;;;;;;;5.52;76.60;101095.91;1746471;81;21462;-42
2021/10/23 16:17:34;;;;;;;66.47;19.57;;;;;;;5.44;77.46;101097.97;1734562;81;20885;-42
2021/10/23 16:20:04;;;;;;;59.90;15.88;;;;;;;5.39;78.85;101103.88;1724370;81;21007;-42
2021/10/23 16:22:32;;;;;;;76.40;27.52;;;;;;;5.33;79.54;101112.34;1728569;82;20992;-42
2021/10/23 16:24:59;;;;;;;63.85;23.57;;;;;;;5.25;80.05;101116.09;1730194;81;20967;-42
2021/10/23 16:27:25;;;;;;;73.52;23.70;;;;;;;5.20;80.32;101118.17;1714414;81;21748;-43
2021/10/23 16:29:53;;;;;;;75.83;23.85;;;;;;;5.10;80.77;101124.43;1721554;82;21556;-43
2021/10/23 16:32:19;;;;;;;60.50;15.08;;;;;;;5.02;81.41;101126.88;1737739;82;21187;-42
2021/10/23 16:34:46;;;;;;;42.40;13.75;;;;;;;4.97;81.76;101131.52;1686227;82;21035;-44
2021/10/23 16:37:14;;;;;;;42.08;14.03;;;;;;;4.91;82.42;101124.58;1735693;82;21008;-44
2021/10/23 16:39:42;;;;;;;27.70;11.57;;;;;;;4.90;82.90;101133.11;1737182;82;20956;-42
2021/10/23 16:42:08;;;;;;;29.10;12.78;;;;;;;4.87;83.87;101135.63;1727358;81;21482;-42
2021/10/23 16:44:37;;;;;;;34.05;12.53;;;;;;;4.82;86.38;101136.84;1714440;82;21017;-42
2021/10/23 16:47:04;;;;;;;27.73;11.43;;;;;;;4.75;87.19;101138.43;1738498;81;21031;-42
2021/10/23 16:49:30;;;;;;;30.55;13.13;;;;;;;4.68;87.17;101149.87;1704448;81;20952;-41
2021/10/23 16:51:57;;;;;;;39.42;16.70;;;;;;;4.56;87.16;101147.52;1732784;81;21156;-43
2021/10/23 16:54:23;;;;;;;43.28;17.27;;;;;;;4.47;87.46;101157.62;1737595;81;21686;-43
2021/10/23 16:56:50;;;;;;;30.80;14.70;;;;;;;4.41;87.52;101171.59;1735222;81;20860;-43
2021/10/23 16:59:16;;;;;;;31.93;13.70;;;;;;;4.43;88.49;101177.20;1733436;80;20962;-42
2021/10/23 17:01:43;;;;;;;30.70;12.93;;;;;;;4.43;88.49;101177.20;1733595;81;20875;-43
2021/10/23 17:04:10;;;;;;;29.52;12.47;;;;;;;4.55;88.74;101177.84;1734459;81;21120;-42
2021/10/23 17:06:36;;;;;;;26.75;11.73;;;;;;;4.62;88.52;101177.55;1731736;82;20962;-42
2021/10/23 17:09:04;;;;;;;26.97;13.53;;;;;;;4.75;88.03;101178.19;1714141;81;22670;-42
2021/10/23 17:11:34;;;;;;;29.23;13.48;;;;;;;4.75;88.03;101178.19;1753390;81;20832;-43
2021/10/23 17:14:00;;;;;;;32.08;14.38;;;;;;;4.74;87.96;101182.87;1734363;81;20956;-43
2021/10/23 17:16:27;;;;;;;28.47;11.12;;;;;;;4.67;88.36;101184.89;1736729;81;21126;-42
2021/10/23 17:18:54;;;;;;;22.10;11.18;;;;;;;4.63;89.50;101190.81;1708922;83;20945;-42
2021/10/23 17:21:21;;;;;;;28.40;11.05;;;;;;;4.56;89.89;101191.55;1738839;80;21382;-42
2021/10/23 17:23:49;;;;;;;29.50;12.40;;;;;;;4.47;90.74;101192.23;1742441;81;20947;-42
2021/10/23 17:26:17;;;;;;;32.53;11.05;;;;;;;4.44;91.56;101194.31;1733030;81;20960;-42
2021/10/23 17:28:43;;;;;;;31.90;11.73;;;;;;;4.44;91.56;101194.31;1737115;81;21898;-42
2021/10/23 17:31:11;;;;;;;28.30;10.08;;;;;;;4.57;91.06;101200.53;1712062;83;21545;-44
2021/10/23 17:33:37;;;;;;;30.75;11.53;;;;;;;4.60;90.61;101202.30;1707094;83;20956;-43
2021/10/23 17:36:04;;;;;;;157.67;93.95;;;;;;;4.73;90.07;101199.54;1708002;83;21037;-43
2021/10/23 17:38:33;;;;;;;51.65;24.77;;;;;;;4.77;89.54;101200.03;1714117;83;20944;-41
2021/10/23 17:41:00;;;;;;;43.28;17.00;;;;;;;4.79;88.50;101213.75;1717679;81;21107;-43
2021/10/23 17:43:27;;;;;;;30.45;13.32;;;;;;;4.79;88.50;101213.75;1709856;83;20917;-43
2021/10/23 17:45:53;;;;;;;27.17;11.88;;;;;;;4.79;88.29;101215.44;1694323;81;21083;-43
2021/10/23 17:48:20;;;;;;;30.00;14.43;;;;;;;4.71;88.00;101213.61;1715335;83;21528;-42
2021/10/23 17:50:46;;;;;;;41.08;14.45;;;;;;;4.73;87.91;101210.64;1709289;83;21000;-42
2021/10/23 17:53:13;;;;;;;56.55;13.98;;;;;;;4.68;87.96;101207.14;1683219;84;21509;-43
2021/10/23 17:55:39;;;;;;;38.25;13.32;;;;;;;4.63;88.43;101211.33;1690045;83;20983;-43
2021/10/23 17:58:06;;;;;;;53.75;13.95;;;;;;;4.57;89.36;101207.38;1708326;83;20964;-43
2021/10/23 18:00:32;;;;;;;59.20;15.43;;;;;;;4.53;90.04;101210.30;1727149;81;20899;-42
2021/10/23 18:02:59;;;;;;;51.95;17.05;;;;;;;4.52;90.42;101213.70;1724776;81;20900;-42
2021/10/23 18:05:26;;;;;;;45.33;20.00;;;;;;;4.56;90.29;101221.88;1748321;81;21833;-43
2021/10/23 18:07:58;;;;;;;92.10;34.27;;;;;;;4.62;89.66;101222.42;1747085;81;20991;-43
2021/10/23 18:10:22;;;;;;;43.45;16.80;;;;;;;4.66;88.95;101229.34;1729273;81;20975;-45
2021/10/23 18:12:48;;;;;;;47.85;15.00;;;;;;;4.67;88.46;101236.19;1743553;82;20924;-43
2021/10/23 18:15:15;;;;;;;43.80;15.08;;;;;;;4.67;88.21;101231.47;1715395;81;20979;-43
2021/10/23 18:17:53;;;;;;;51.68;15.00;;;;;;;4.69;87.87;101242.65;1741558;81;21497;-41
2021/10/23 18:20:15;;;;;;;45.10;15.58;;;;;;;4.65;87.59;101244.28;1739841;82;21485;-42
2021/10/23 18:22:42;;;;;;;39.35;13.45;;;;;;;4.63;87.58;101243.80;1733806;82;21609;-41
2021/10/23 18:25:10;;;;;;;129.05;65.47;;;;;;;4.58;87.75;101247.14;1711319;82;20959;-42
2021/10/23 18:27:37;;;;;;;76.55;34.15;;;;;;;4.58;87.97;101248.42;1728485;82;20981;-43
2021/10/23 18:30:08;;;;;;;49.65;16.42;;;;;;;4.60;88.27;101249.31;1723772;82;21044;-43
2021/10/23 18:32:38;;;;;;;39.08;15.08;;;;;;;4.58;88.84;101256.55;1745025;82;20976;-43
2021/10/23 18:35:07;;;;;;;35.13;13.90;;;;;;;4.46;89.80;101248.20;1734898;82;22259;-43
2021/10/23 18:37:34;;;;;;;32.25;13.10;;;;;;;4.46;89.80;101248.20;1718673;81;21055;-43
2021/10/23 18:40:02;;;;;;;39.63;13.25;;;;;;;4.47;89.51;101258.91;1711926;82;21031;-43
2021/10/23 18:42:31;;;;;;;40.40;14.60;;;;;;;4.46;89.21;101261.02;1732393;81;22449;-42
2021/10/23 18:44:58;;;;;;;38.95;13.32;;;;;;;4.42;88.83;101263.93;1725041;81;20980;-43
2021/10/23 18:47:25;;;;;;;39.23;12.55;;;;;;;4.39;88.06;101269.41;1740573;81;21034;-42
2021/10/23 18:49:51;;;;;;;39.78;11.70;;;;;;;4.38;86.89;101271.12;1743166;81;20952;-44
2021/10/23 18:52:18;;;;;;;39.30;12.75;;;;;;;4.38;86.89;101271.12;1708411;81;20999;-43
2021/10/23 18:54:45;;;;;;;46.28;13.20;;;;;;;4.34;86.54;101279.59;1719987;81;21148;-42
2021/10/23 18:57:11;;;;;;;33.45;12.53;;;;;;;4.26;86.36;101269.57;1705527;81;20979;-43
2021/10/23 18:59:38;;;;;;;44.53;12.63;;;;;;;4.17;86.19;101274.11;1756353;81;21521;-42
2021/10/23 19:02:11;;;;;;;24.63;12.03;;;;;;;4.09;85.64;101280.75;1715209;81;20979;-44
2021/10/23 19:04:37;;;;;;;34.55;14.68;;;;;;;4.01;85.29;101285.30;1698834;82;20989;-45
2021/10/23 19:07:06;;;;;;;43.95;14.85;;;;;;;3.90;84.94;101281.63;1723138;82;21137;-43
2021/10/23 19:09:32;;;;;;;64.58;22.50;;;;;;;3.77;84.96;101283.04;1727505;81;20924;-43
2021/10/23 19:11:59;;;;;;;48.85;13.25;;;;;;;3.66;85.28;101281.94;1704192;81;21040;-43
2021/10/23 19:14:28;;;;;;;49.48;12.37;;;;;;;3.54;85.60;101285.08;1731132;80;20960;-43
2021/10/23 19:16:54;;;;;;;31.25;12.55;;;;;;;3.45;85.96;101287.87;1715048;82;21024;-43
2021/10/23 19:19:21;;;;;;;37.28;11.90;;;;;;;3.36;86.47;101290.19;1707596;83;21116;-43
2021/10/23 19:21:49;;;;;;;44.13;14.03;;;;;;;3.28;87.44;101294.27;1726869;80;20890;-42
2021/10/23 19:24:17;;;;;;;39.98;12.60;;;;;;;3.22;88.05;101291.56;1733796;82;20951;-43
2021/10/23 19:26:43;;;;;;;26.25;11.05;;;;;;;3.16;88.56;101293.14;1717548;81;21513;-43
2021/10/23 19:29:11;;;;;;;26.62;11.22;;;;;;;3.12;89.16;101297.70;1717776;82;20921;-43
2021/10/23 19:31:39;;;;;;;24.43;11.03;;;;;;;3.11;90.22;101298.53;1718390;81;21131;-43
2021/10/23 19:34:07;;;;;;;33.80;12.07;;;;;;;3.13;91.52;101297.30;1746540;81;20958;-43
2021/10/23 19:36:37;;;;;;;62.70;14.45;;;;;;;3.12;92.39;101298.13;1733760;81;21125;-43
2021/10/23 19:39:05;;;;;;;44.70;14.45;;;;;;;3.11;93.05;101300.23;1739628;81;20931;-42
2021/10/23 19:41:32;;;;;;;30.32;11.80;;;;;;;3.16;93.48;101309.77;1734310;81;20992;-42
2021/10/23 19:43:59;;;;;;;32.33;11.10;;;;;;;3.22;93.02;101315.88;1747854;81;21122;-42
2021/10/23 19:46:25;;;;;;;34.70;10.72;;;;;;;3.27;92.30;101315.14;1719970;82;21004;-43
2021/10/23 19:48:55;;;;;;;22.67;9.53;;;;;;;3.34;91.49;101313.61;1735729;80;21374;-42
2021/10/23 19:51:21;;;;;;;22.70;8.40;;;;;;;3.44;90.28;101321.98;1736477;81;20943;-43
2021/10/23 19:53:48;;;;;;;32.17;8.65;;;;;;;3.63;89.10;101319.85;1734874;81;21031;-42
2021/10/23 19:56:16;;;;;;;31.60;9.90;;;;;;;3.75;87.23;101318.00;1689868;82;21085;-44
2021/10/23 19:58:42;;;;;;;35.17;8.93;;;;;;;3.87;85.62;101318.70;1740073;81;20919;-45
2021/10/23 20:01:08;;;;;;;47.15;9.78;;;;;;;3.95;84.79;101319.77;1720859;81;20944;-43
2021/10/23 20:03:35;;;;;;;45.38;19.17;;;;;;;3.99;83.74;101316.44;1702951;82;20968;-43
2021/10/23 20:06:02;;;;;;;19.57;7.47;;;;;;;4.06;82.31;101320.41;1737167;81;21499;-43
2021/10/23 20:08:29;;;;;;;20.02;6.80;;;;;;;4.12;80.95;101317.97;1686348;83;21791;-43
2021/10/23 20:10:57;;;;;;;19.40;7.50;;;;;;;4.17;79.56;101315.13;1741682;82;21063;-42
2021/10/23 20:13:25;;;;;;;17.35;7.05;;;;;;;4.26;77.76;101328.13;1733405;81;21041;-43
2021/10/23 20:15:51;;;;;;;19.15;7.50;;;;;;;4.33;76.17;101321.84;1736164;81;23584;-42
2021/10/23 20:18:19;;;;;;;18.98;7.67;;;;;;;4.34;75.47;101327.41;1737356;81;21011;-43
2021/10/23 20:20:46;;;;;;;23.20;7.10;;;;;;;4.34;73.96;101331.26;1750122;82;21197;-42
2021/10/23 20:23:12;;;;;;;18.50;7.30;;;;;;;4.37;73.71;101332.20;1724633;81;20934;-43
2021/10/23 20:25:39;;;;;;;17.00;7.47;;;;;;;4.36;73.04;101334.72;1712608;81;20996;-43
2021/10/23 20:28:05;;;;;;;15.60;8.08;;;;;;;4.32;73.34;101335.09;1725672;81;21569;-44
2021/10/23 20:30:32;;;;;;;14.98;7.08;;;;;;;4.24;73.29;101336.20;1740712;81;20888;-42
2021/10/23 20:32:59;;;;;;;14.55;6.92;;;;;;;4.16;72.81;101338.98;1746413;82;21172;-42
2021/10/23 20:35:28;;;;;;;23.75;7.33;;;;;;;4.13;72.56;101340.20;1713919;81;20945;-41
2021/10/23 20:37:58;;;;;;;14.07;6.35;;;;;;;4.09;72.70;101346.98;1750667;81;21002;-43
2021/10/23 20:40:30;;;;;;;14.93;7.03;;;;;;;4.08;72.67;101345.25;1748355;81;20996;-43
2021/10/23 20:42:56;;;;;;;18.12;7.28;;;;;;;4.08;72.65;101345.25;1734599;81;20924;-43
2021/10/23 20:45:23;;;;;;;18.15;6.72;;;;;;;4.07;72.25;101351.61;1729305;81;21151;-43
2021/10/23 20:47:50;;;;;;;13.70;6.67;;;;;;;4.05;72.01;101349.42;1739392;81;20940;-44
2021/10/23 20:50:17;;;;;;;12.93;6.20;;;;;;;4.01;71.67;101357.05;1718774;81;21030;-43
2021/10/23 20:52:44;;;;;;;25.52;6.87;;;;;;;4.02;71.33;101354.94;1739007;81;20905;-43
2021/10/23 20:55:12;;;;;;;17.02;6.22;;;;;;;4.01;70.99;101357.05;1739862;81;21755;-43
2021/10/23 20:57:39;;;;;;;21.15;8.18;;;;;;;3.98;70.94;101364.66;1737357;81;21145;-43
2021/10/23 21:00:07;;;;;;;65.55;12.50;;;;;;;3.92;71.02;101355.96;1727498;81;21574;-42
2021/10/23 21:02:34;;;;;;;28.00;8.68;;;;;;;3.77;71.63;101365.00;1716282;81;21051;-42
2021/10/23 21:05:01;;;;;;;22.32;8.05;;;;;;;3.65;73.11;101363.00;1715343;82;21482;-42
2021/10/23 21:07:28;;;;;;;23.98;7.28;;;;;;;3.56;76.36;101370.47;1706356;81;20969;-41
2021/10/23 21:09:55;;;;;;;12.78;6.47;;;;;;;3.41;79.05;101373.11;1747180;82;21884;-43
2021/10/23 21:12:21;;;;;;;22.17;7.00;;;;;;;3.28;80.37;101377.44;1732792;81;20842;-42
2021/10/23 21:14:48;;;;;;;18.30;7.10;;;;;;;3.14;81.45;101372.81;1729088;81;21154;-43
2021/10/23 21:17:14;;;;;;;27.50;6.78;;;;;;;3.00;82.25;101370.30;1743703;80;21814;-43
2021/10/23 21:19:44;;;;;;;10.13;5.53;;;;;;;2.85;82.50;101370.32;1722807;81;21023;-43
2021/10/23 21:22:10;;;;;;;18.00;6.03;;;;;;;2.71;82.06;101371.64;1706495;83;21238;-43
2021/10/23 21:24:37;;;;;;;24.92;6.65;;;;;;;2.61;81.57;101378.57;1730323;81;21410;-43
2021/10/23 21:27:03;;;;;;;30.30;6.90;;;;;;;2.48;81.07;101375.67;1740452;81;21439;-41
2021/10/23 21:30:23;;;;;;;20.55;6.92;;;;;;;2.44;80.81;101381.52;1815984;79;22723;-43
2021/10/23 21:32:50;;;;;;;20.57;7.45;;;;;;;2.39;80.80;101383.04;1789150;80;20884;-41
2021/10/23 21:35:17;;;;;;;21.80;7.28;;;;;;;2.37;80.80;101379.18;1789154;80;21153;-42
2021/10/23 21:37:49;;;;;;;33.98;18.00;;;;;;;2.33;80.82;101381.19;1788950;80;20992;-42
2021/10/23 21:40:13;;;;;;;17.45;7.87;;;;;;;2.25;80.98;101381.34;1753589;81;21003;-44
2021/10/23 21:42:39;;;;;;;21.68;7.35;;;;;;;2.17;81.29;101381.13;1754310;81;20944;-43
2021/10/23 21:45:07;;;;;;;27.32;8.83;;;;;;;2.11;81.96;101392.41;1741908;82;20984;-43
2021/10/23 21:47:33;;;;;;;19.27;6.80;;;;;;;2.05;83.11;101389.67;1709297;82;21019;-42
2021/10/23 21:50:00;;;;;;;24.70;7.87;;;;;;;1.98;84.11;101389.88;1738719;82;20924;-42
2021/10/23 21:52:27;;;;;;;45.00;10.72;;;;;;;1.90;84.93;101393.49;1738900;82;21544;-43
2021/10/23 21:54:53;;;;;;;57.17;9.58;;;;;;;1.85;85.76;101400.11;1738739;82;20983;-42